sensor_id;sensor_type;location;lat;lon;timestamp;pressure;altitude;pressure_sealevel;temperature;humidity
38630;BME280;24384;51.988;4.644;2023-03-14T00:01:53;98924.28;;;10.31;74.54
38630;BME280;24384;51.988;4.644;2023-03-14T00:04:19;98929.72;;;10.28;75.19
38630;BME280;24384;51.988;4.644;2023-03-14T00:06:44;98911.88;;;10.18;74.56
38630;BME280;24384;51.988;4.644;2023-03-14T00:09:12;98936.69;;;10.14;74.94
38630;BME280;24384;51.988;4.644;2023-03-14T00:11:40;98922.03;;;10.10;76.03
38630;BME280;24384;51.988;4.644;2023-03-14T00:14:05;98933.50;;;10.09;75.91
38630;BME280;24384;51.988;4.644;2023-03-14T00:16:31;98925.97;;;10.03;75.83
38630;BME280;24384;51.988;4.644;2023-03-14T00:18:57;98916.38;;;10.02;75.60
38630;BME280;24384;51.988;4.644;2023-03-14T00:21:23;98920.81;;;10.01;75.37
38630;BME280;24384;51.988;4.644;2023-03-14T00:23:48;98923.72;;;9.97;76.84
38630;BME280;24384;51.988;4.644;2023-03-14T00:26:17;98930.28;;;9.90;77.14
38630;BME280;24384;51.988;4.644;2023-03-14T00:28:43;98943.44;;;9.75;78.16
38630;BME280;24384;51.988;4.644;2023-03-14T00:31:11;98931.50;;;9.70;79.92
38630;BME280;24384;51.988;4.644;2023-03-14T00:33:39;98937.31;;;9.60;80.11
38630;BME280;24384;51.988;4.644;2023-03-14T00:36:05;98926.59;;;9.63;80.11
38630;BME280;24384;51.988;4.644;2023-03-14T00:38:34;98927.28;;;9.67;79.93
38630;BME280;24384;51.988;4.644;2023-03-14T00:41:01;98918.22;;;9.57;80.80
38630;BME280;24384;51.988;4.644;2023-03-14T00:43:27;98937.94;;;9.49;81.58
38630;BME280;24384;51.988;4.644;2023-03-14T00:45:52;98931.84;;;9.49;81.92
38630;BME280;24384;51.988;4.644;2023-03-14T00:48:18;98950.44;;;9.46;82.03
38630;BME280;24384;51.988;4.644;2023-03-14T00:50:44;98924.97;;;9.46;82.01
38630;BME280;24384;51.988;4.644;2023-03-14T00:53:10;98953.06;;;9.46;82.24
38630;BME280;24384;51.988;4.644;2023-03-14T00:55:39;98955.63;;;9.47;81.91
38630;BME280;24384;51.988;4.644;2023-03-14T00:58:05;98952.88;;;9.49;82.22
38630;BME280;24384;51.988;4.644;2023-03-14T01:00:36;98960.13;;;9.45;81.72
38630;BME280;24384;51.988;4.644;2023-03-14T01:03:11;98958.50;;;9.43;82.46
38630;BME280;24384;51.988;4.644;2023-03-14T01:06:06;98955.88;;;9.43;82.61
38630;BME280;24384;51.988;4.644;2023-03-14T01:11:49;98932.91;;;9.30;83.78
38630;BME280;24384;51.988;4.644;2023-03-14T01:14:32;98928.75;;;9.26;83.57
38630;BME280;24384;51.988;4.644;2023-03-14T01:16:58;98947.25;;;9.25;83.69
38630;BME280;24384;51.988;4.644;2023-03-14T01:19:26;98937.78;;;9.22;84.21
38630;BME280;24384;51.988;4.644;2023-03-14T01:21:53;98935.81;;;9.26;84.18
38630;BME280;24384;51.988;4.644;2023-03-14T01:24:19;98938.63;;;9.23;84.22
38630;BME280;24384;51.988;4.644;2023-03-14T01:26:45;98936.25;;;9.18;85.03
38630;BME280;24384;51.988;4.644;2023-03-14T01:29:10;98941.53;;;9.18;84.90
38630;BME280;24384;51.988;4.644;2023-03-14T01:31:38;98956.56;;;9.16;84.51
38630;BME280;24384;51.988;4.644;2023-03-14T01:34:06;98924.22;;;9.14;84.42
38630;BME280;24384;51.988;4.644;2023-03-14T01:36:31;98932.09;;;9.14;84.21
38630;BME280;24384;51.988;4.644;2023-03-14T01:38:56;98936.44;;;9.15;84.29
38630;BME280;24384;51.988;4.644;2023-03-14T01:41:23;98928.63;;;9.13;84.40
38630;BME280;24384;51.988;4.644;2023-03-14T01:43:49;98923.94;;;9.19;83.87
38630;BME280;24384;51.988;4.644;2023-03-14T01:53:51;98931.56;;;9.23;83.15
38630;BME280;24384;51.988;4.644;2023-03-14T01:56:21;98918.41;;;9.23;83.15
38630;BME280;24384;51.988;4.644;2023-03-14T01:58:48;98916.56;;;9.25;82.98
38630;BME280;24384;51.988;4.644;2023-03-14T02:01:21;98923.69;;;9.23;83.18
38630;BME280;24384;51.988;4.644;2023-03-14T02:03:56;98922.19;;;9.19;83.76
38630;BME280;24384;51.988;4.644;2023-03-14T02:06:26;98917.59;;;9.23;82.82
38630;BME280;24384;51.988;4.644;2023-03-14T02:08:54;98904.53;;;9.21;83.06
38630;BME280;24384;51.988;4.644;2023-03-14T02:11:19;98915.31;;;9.17;83.40
38630;BME280;24384;51.988;4.644;2023-03-14T02:14:12;98897.66;;;9.19;83.47
38630;BME280;24384;51.988;4.644;2023-03-14T02:16:49;98895.56;;;9.09;83.93
38630;BME280;24384;51.988;4.644;2023-03-14T02:19:14;98901.84;;;9.07;84.09
38630;BME280;24384;51.988;4.644;2023-03-14T02:21:50;98892.44;;;9.03;84.15
38630;BME280;24384;51.988;4.644;2023-03-14T02:27:08;98901.34;;;9.00;83.73
38630;BME280;24384;51.988;4.644;2023-03-14T02:29:34;98889.91;;;9.01;84.19
38630;BME280;24384;51.988;4.644;2023-03-14T02:32:03;98889.31;;;8.96;84.08
38630;BME280;24384;51.988;4.644;2023-03-14T02:34:28;98884.91;;;8.96;84.84
38630;BME280;24384;51.988;4.644;2023-03-14T02:36:56;98904.41;;;8.92;85.77
38630;BME280;24384;51.988;4.644;2023-03-14T02:39:27;98893.41;;;8.86;86.29
38630;BME280;24384;51.988;4.644;2023-03-14T02:41:59;98888.25;;;8.84;86.34
38630;BME280;24384;51.988;4.644;2023-03-14T02:44:24;98884.78;;;8.84;85.81
38630;BME280;24384;51.988;4.644;2023-03-14T02:46:49;98888.16;;;8.86;86.35
38630;BME280;24384;51.988;4.644;2023-03-14T02:49:17;98883.72;;;8.86;86.31
38630;BME280;24384;51.988;4.644;2023-03-14T02:51:45;98882.13;;;8.84;87.62
38630;BME280;24384;51.988;4.644;2023-03-14T02:54:11;98881.53;;;8.78;88.01
38630;BME280;24384;51.988;4.644;2023-03-14T02:56:36;98879.34;;;8.71;88.68
38630;BME280;24384;51.988;4.644;2023-03-14T02:59:05;98875.22;;;8.67;88.36
38630;BME280;24384;51.988;4.644;2023-03-14T03:01:33;98883.09;;;8.67;87.55
38630;BME280;24384;51.988;4.644;2023-03-14T03:03:58;98874.09;;;8.71;87.90
38630;BME280;24384;51.988;4.644;2023-03-14T03:06:26;98872.25;;;8.73;87.06
38630;BME280;24384;51.988;4.644;2023-03-14T03:08:54;98880.69;;;8.78;87.26
38630;BME280;24384;51.988;4.644;2023-03-14T03:14:18;98871.19;;;8.75;87.27
38630;BME280;24384;51.988;4.644;2023-03-14T03:17:05;98864.94;;;8.78;86.97
38630;BME280;24384;51.988;4.644;2023-03-14T03:22:40;98872.38;;;8.86;85.98
38630;BME280;24384;51.988;4.644;2023-03-14T03:25:16;98865.41;;;8.85;86.62
38630;BME280;24384;51.988;4.644;2023-03-14T03:27:41;98866.47;;;8.82;86.18
38630;BME280;24384;51.988;4.644;2023-03-14T03:30:07;98855.75;;;8.85;85.99
38630;BME280;24384;51.988;4.644;2023-03-14T03:32:33;98846.25;;;8.83;86.27
38630;BME280;24384;51.988;4.644;2023-03-14T03:34:58;98849.56;;;8.86;86.74
38630;BME280;24384;51.988;4.644;2023-03-14T03:37:25;98865.16;;;8.89;85.82
38630;BME280;24384;51.988;4.644;2023-03-14T03:39:58;98855.59;;;8.88;86.32
38630;BME280;24384;51.988;4.644;2023-03-14T03:45:47;98851.25;;;8.87;85.86
38630;BME280;24384;51.988;4.644;2023-03-14T03:48:29;98856.44;;;8.89;85.98
38630;BME280;24384;51.988;4.644;2023-03-14T03:54:04;98848.63;;;8.87;86.06
38630;BME280;24384;51.988;4.644;2023-03-14T03:56:52;98854.63;;;8.89;86.47
38630;BME280;24384;51.988;4.644;2023-03-14T03:59:37;98853.06;;;8.87;86.30
38630;BME280;24384;51.988;4.644;2023-03-14T04:05:29;98854.47;;;8.92;85.74
38630;BME280;24384;51.988;4.644;2023-03-14T04:08:13;98857.94;;;8.93;86.12
38630;BME280;24384;51.988;4.644;2023-03-14T04:10:59;98855.97;;;8.96;86.05
38630;BME280;24384;51.988;4.644;2023-03-14T04:14:02;98859.44;;;8.97;85.67
38630;BME280;24384;51.988;4.644;2023-03-14T04:16:41;98858.97;;;8.90;86.58
38630;BME280;24384;51.988;4.644;2023-03-14T04:19:31;98847.53;;;8.91;86.77
38630;BME280;24384;51.988;4.644;2023-03-14T04:22:18;98856.78;;;8.83;88.12
38630;BME280;24384;51.988;4.644;2023-03-14T04:25:05;98867.47;;;8.80;88.80
38630;BME280;24384;51.988;4.644;2023-03-14T04:27:50;98860.03;;;8.72;89.54
38630;BME280;24384;51.988;4.644;2023-03-14T04:30:18;98849.84;;;8.66;90.41
38630;BME280;24384;51.988;4.644;2023-03-14T04:32:43;98869.34;;;8.62;91.48
38630;BME280;24384;51.988;4.644;2023-03-14T04:35:08;98850.38;;;8.56;91.93
38630;BME280;24384;51.988;4.644;2023-03-14T04:37:38;98860.13;;;8.54;92.07
38630;BME280;24384;51.988;4.644;2023-03-14T04:40:16;98846.47;;;8.48;92.86
38630;BME280;24384;51.988;4.644;2023-03-14T04:43:04;98854.19;;;8.51;93.25
38630;BME280;24384;51.988;4.644;2023-03-14T04:45:45;98844.03;;;8.45;93.10
38630;BME280;24384;51.988;4.644;2023-03-14T04:51:20;98846.13;;;8.38;94.65
38630;BME280;24384;51.988;4.644;2023-03-14T04:54:00;98847.91;;;8.37;94.94
38630;BME280;24384;51.988;4.644;2023-03-14T04:56:31;98844.41;;;8.37;95.19
38630;BME280;24384;51.988;4.644;2023-03-14T04:58:59;98846.31;;;8.35;95.41
38630;BME280;24384;51.988;4.644;2023-03-14T05:01:34;98849.09;;;8.32;95.55
38630;BME280;24384;51.988;4.644;2023-03-14T05:04:19;98843.84;;;8.32;95.83
38630;BME280;24384;51.988;4.644;2023-03-14T05:07:03;98841.13;;;8.33;96.34
38630;BME280;24384;51.988;4.644;2023-03-14T05:09:38;98842.06;;;8.32;96.49
38630;BME280;24384;51.988;4.644;2023-03-14T05:12:06;98837.13;;;8.26;97.59
38630;BME280;24384;51.988;4.644;2023-03-14T05:14:34;98835.56;;;8.23;97.78
38630;BME280;24384;51.988;4.644;2023-03-14T05:20:19;98828.69;;;8.21;98.39
38630;BME280;24384;51.988;4.644;2023-03-14T05:23:12;98831.47;;;8.18;98.49
38630;BME280;24384;51.988;4.644;2023-03-14T05:25:49;98821.06;;;8.16;98.74
38630;BME280;24384;51.988;4.644;2023-03-14T05:28:38;98821.16;;;8.15;98.54
38630;BME280;24384;51.988;4.644;2023-03-14T05:31:11;98831.66;;;8.15;98.99
38630;BME280;24384;51.988;4.644;2023-03-14T05:33:47;98835.09;;;8.15;98.72
38630;BME280;24384;51.988;4.644;2023-03-14T05:36:40;98830.09;;;8.11;99.09
38630;BME280;24384;51.988;4.644;2023-03-14T05:45:20;98880.81;;;7.79;99.50
38630;BME280;24384;51.988;4.644;2023-03-14T05:47:48;98899.56;;;7.71;98.98
38630;BME280;24384;51.988;4.644;2023-03-14T05:50:41;98914.63;;;7.68;98.31
38630;BME280;24384;51.988;4.644;2023-03-14T05:53:20;98926.84;;;7.51;97.61
38630;BME280;24384;51.988;4.644;2023-03-14T05:55:58;98934.72;;;7.51;96.75
38630;BME280;24384;51.988;4.644;2023-03-14T05:58:36;98940.78;;;7.52;96.90
38630;BME280;24384;51.988;4.644;2023-03-14T06:01:11;98944.53;;;7.48;96.76
38630;BME280;24384;51.988;4.644;2023-03-14T06:04:04;98959.38;;;7.47;96.45
38630;BME280;24384;51.988;4.644;2023-03-14T06:06:50;98960.16;;;7.32;96.48
38630;BME280;24384;51.988;4.644;2023-03-14T06:09:43;98967.41;;;7.44;96.18
38630;BME280;24384;51.988;4.644;2023-03-14T06:12:29;98972.34;;;7.33;96.51
38630;BME280;24384;51.988;4.644;2023-03-14T06:14:57;98988.91;;;7.33;97.17
38630;BME280;24384;51.988;4.644;2023-03-14T06:17:33;98982.22;;;7.28;97.17
38630;BME280;24384;51.988;4.644;2023-03-14T06:20:09;98981.13;;;7.32;97.31
38630;BME280;24384;51.988;4.644;2023-03-14T06:25:48;99000.44;;;7.31;96.69
38630;BME280;24384;51.988;4.644;2023-03-14T06:28:33;99008.59;;;7.25;96.68
38630;BME280;24384;51.988;4.644;2023-03-14T06:31:11;99008.38;;;7.29;97.10
38630;BME280;24384;51.988;4.644;2023-03-14T06:33:45;99016.72;;;7.38;97.01
38630;BME280;24384;51.988;4.644;2023-03-14T06:36:13;99018.41;;;7.39;96.91
38630;BME280;24384;51.988;4.644;2023-03-14T06:38:38;99032.38;;;7.39;96.53
38630;BME280;24384;51.988;4.644;2023-03-14T06:41:04;99052.22;;;7.26;97.11
38630;BME280;24384;51.988;4.644;2023-03-14T06:43:30;99053.84;;;7.11;97.31
38630;BME280;24384;51.988;4.644;2023-03-14T06:45:55;99061.78;;;7.09;96.62
38630;BME280;24384;51.988;4.644;2023-03-14T06:48:20;99065.88;;;6.96;95.48
38630;BME280;24384;51.988;4.644;2023-03-14T06:50:47;99080.03;;;6.92;95.32
38630;BME280;24384;51.988;4.644;2023-03-14T06:53:12;99089.03;;;6.86;95.70
38630;BME280;24384;51.988;4.644;2023-03-14T06:55:40;99098.78;;;6.82;95.52
38630;BME280;24384;51.988;4.644;2023-03-14T06:58:16;99102.63;;;6.94;95.72
38630;BME280;24384;51.988;4.644;2023-03-14T07:00:41;99113.25;;;6.91;95.22
38630;BME280;24384;51.988;4.644;2023-03-14T07:03:06;99122.03;;;6.90;96.31
38630;BME280;24384;51.988;4.644;2023-03-14T07:05:34;99134.66;;;7.01;95.94
38630;BME280;24384;51.988;4.644;2023-03-14T07:07:59;99139.06;;;7.01;95.83
38630;BME280;24384;51.988;4.644;2023-03-14T07:10:24;99140.03;;;6.98;95.52
38630;BME280;24384;51.988;4.644;2023-03-14T07:12:50;99155.47;;;7.04;95.43
38630;BME280;24384;51.988;4.644;2023-03-14T07:15:16;99150.69;;;7.14;95.02
38630;BME280;24384;51.988;4.644;2023-03-14T07:17:44;99165.97;;;7.04;94.93
38630;BME280;24384;51.988;4.644;2023-03-14T07:20:11;99173.34;;;7.15;95.10
38630;BME280;24384;51.988;4.644;2023-03-14T07:22:37;99179.19;;;7.22;94.73
38630;BME280;24384;51.988;4.644;2023-03-14T07:25:02;99192.78;;;7.30;95.03
38630;BME280;24384;51.988;4.644;2023-03-14T07:27:27;99208.94;;;7.40;94.47
38630;BME280;24384;51.988;4.644;2023-03-14T07:29:52;99207.25;;;7.39;94.38
38630;BME280;24384;51.988;4.644;2023-03-14T07:32:18;99215.63;;;7.28;94.61
38630;BME280;24384;51.988;4.644;2023-03-14T07:34:43;99226.25;;;7.25;93.97
38630;BME280;24384;51.988;4.644;2023-03-14T07:37:08;99234.19;;;7.23;94.61
38630;BME280;24384;51.988;4.644;2023-03-14T07:39:34;99242.69;;;7.28;93.48
38630;BME280;24384;51.988;4.644;2023-03-14T07:41:59;99247.66;;;7.34;93.26
38630;BME280;24384;51.988;4.644;2023-03-14T07:44:24;99256.91;;;7.23;94.24
38630;BME280;24384;51.988;4.644;2023-03-14T07:46:50;99265.38;;;7.29;94.15
38630;BME280;24384;51.988;4.644;2023-03-14T07:49:15;99275.31;;;7.42;94.04
38630;BME280;24384;51.988;4.644;2023-03-14T07:51:40;99293.41;;;7.27;94.76
38630;BME280;24384;51.988;4.644;2023-03-14T07:54:06;99310.41;;;7.19;94.90
38630;BME280;24384;51.988;4.644;2023-03-14T07:56:33;99315.13;;;6.90;93.31
38630;BME280;24384;51.988;4.644;2023-03-14T07:58:58;99337.00;;;6.89;92.61
38630;BME280;24384;51.988;4.644;2023-03-14T08:01:24;99359.41;;;6.75;92.73
38630;BME280;24384;51.988;4.644;2023-03-14T08:03:49;99364.78;;;6.72;92.46
38630;BME280;24384;51.988;4.644;2023-03-14T08:06:14;99375.06;;;6.55;91.63
38630;BME280;24384;51.988;4.644;2023-03-14T08:08:40;99387.13;;;6.59;92.38
38630;BME280;24384;51.988;4.644;2023-03-14T08:11:05;99393.28;;;6.58;92.35
38630;BME280;24384;51.988;4.644;2023-03-14T08:13:33;99404.69;;;6.57;91.90
38630;BME280;24384;51.988;4.644;2023-03-14T08:15:59;99412.00;;;6.71;92.69
38630;BME280;24384;51.988;4.644;2023-03-14T08:18:24;99428.38;;;6.76;92.11
38630;BME280;24384;51.988;4.644;2023-03-14T08:20:50;99438.63;;;6.82;91.04
38630;BME280;24384;51.988;4.644;2023-03-14T08:23:15;99445.41;;;6.88;91.15
38630;BME280;24384;51.988;4.644;2023-03-14T08:25:40;99456.31;;;6.77;89.65
38630;BME280;24384;51.988;4.644;2023-03-14T08:28:05;99466.06;;;6.95;89.45
38630;BME280;24384;51.988;4.644;2023-03-14T08:30:31;99483.66;;;6.70;88.79
38630;BME280;24384;51.988;4.644;2023-03-14T08:32:56;99502.06;;;6.90;88.69
38630;BME280;24384;51.988;4.644;2023-03-14T08:35:22;99523.09;;;6.89;86.82
38630;BME280;24384;51.988;4.644;2023-03-14T08:37:48;99527.78;;;7.03;86.09
38630;BME280;24384;51.988;4.644;2023-03-14T08:40:14;99532.91;;;6.84;85.00
38630;BME280;24384;51.988;4.644;2023-03-14T08:42:40;99555.00;;;6.76;84.64
38630;BME280;24384;51.988;4.644;2023-03-14T08:45:06;99562.75;;;6.79;85.34
38630;BME280;24384;51.988;4.644;2023-03-14T08:47:32;99578.25;;;6.62;83.50
38630;BME280;24384;51.988;4.644;2023-03-14T08:49:57;99576.44;;;6.64;83.26
38630;BME280;24384;51.988;4.644;2023-03-14T08:52:22;99590.47;;;6.63;82.57
38630;BME280;24384;51.988;4.644;2023-03-14T08:54:48;99596.88;;;6.78;82.13
38630;BME280;24384;51.988;4.644;2023-03-14T08:57:13;99603.31;;;6.93;82.63
38630;BME280;24384;51.988;4.644;2023-03-14T08:59:38;99610.19;;;7.19;82.20
38630;BME280;24384;51.988;4.644;2023-03-14T09:02:04;99616.31;;;7.42;80.62
38630;BME280;24384;51.988;4.644;2023-03-14T09:04:32;99632.03;;;7.64;79.31
38630;BME280;24384;51.988;4.644;2023-03-14T09:06:58;99640.09;;;7.59;77.14
38630;BME280;24384;51.988;4.644;2023-03-14T09:09:26;99651.91;;;7.47;78.79
38630;BME280;24384;51.988;4.644;2023-03-14T09:11:52;99662.56;;;7.66;78.60
38630;BME280;24384;51.988;4.644;2023-03-14T09:14:19;99672.56;;;7.79;76.73
38630;BME280;24384;51.988;4.644;2023-03-14T09:16:45;99668.75;;;8.08;78.43
38630;BME280;24384;51.988;4.644;2023-03-14T09:19:10;99687.66;;;8.16;76.27
38630;BME280;24384;51.988;4.644;2023-03-14T09:21:36;99694.34;;;8.46;77.16
38630;BME280;24384;51.988;4.644;2023-03-14T09:24:02;99697.16;;;8.41;75.56
38630;BME280;24384;51.988;4.644;2023-03-14T09:26:27;99716.50;;;8.18;74.98
38630;BME280;24384;51.988;4.644;2023-03-14T09:28:53;99724.38;;;8.18;75.55
38630;BME280;24384;51.988;4.644;2023-03-14T09:31:18;99741.34;;;8.09;76.31
38630;BME280;24384;51.988;4.644;2023-03-14T09:33:43;99753.66;;;7.86;75.75
38630;BME280;24384;51.988;4.644;2023-03-14T09:36:09;99756.16;;;7.66;76.29
38630;BME280;24384;51.988;4.644;2023-03-14T09:38:35;99761.88;;;7.77;77.00
38630;BME280;24384;51.988;4.644;2023-03-14T09:41:01;99774.81;;;7.58;78.10
38630;BME280;24384;51.988;4.644;2023-03-14T09:43:31;99791.25;;;7.40;78.09
38630;BME280;24384;51.988;4.644;2023-03-14T09:45:58;99798.16;;;7.19;80.89
38630;BME280;24384;51.988;4.644;2023-03-14T09:48:27;99799.53;;;7.04;80.38
38630;BME280;24384;51.988;4.644;2023-03-14T09:50:56;99817.78;;;7.07;82.38
38630;BME280;24384;51.988;4.644;2023-03-14T09:53:27;99829.28;;;7.28;81.96
38630;BME280;24384;51.988;4.644;2023-03-14T09:55:53;99833.13;;;7.43;80.47
38630;BME280;24384;51.988;4.644;2023-03-14T09:58:21;99835.50;;;7.49;78.90
38630;BME280;24384;51.988;4.644;2023-03-14T10:00:46;99838.28;;;8.15;81.80
38630;BME280;24384;51.988;4.644;2023-03-14T10:05:37;99870.34;;;8.69;74.34
38630;BME280;24384;51.988;4.644;2023-03-14T10:08:02;99868.13;;;8.81;72.87
38630;BME280;24384;51.988;4.644;2023-03-14T10:10:28;99875.28;;;8.77;71.27
38630;BME280;24384;51.988;4.644;2023-03-14T10:12:57;99888.78;;;8.68;71.60
38630;BME280;24384;51.988;4.644;2023-03-14T10:15:28;99896.50;;;8.50;71.65
38630;BME280;24384;51.988;4.644;2023-03-14T10:17:55;99904.66;;;8.42;71.28
38630;BME280;24384;51.988;4.644;2023-03-14T10:23:05;99918.16;;;8.33;70.28
38630;BME280;24384;51.988;4.644;2023-03-14T10:25:33;99923.97;;;8.41;73.05
38630;BME280;24384;51.988;4.644;2023-03-14T10:27:58;99944.06;;;8.44;70.24
38630;BME280;24384;51.988;4.644;2023-03-14T10:30:33;99958.69;;;8.26;69.35
38630;BME280;24384;51.988;4.644;2023-03-14T10:33:10;99971.53;;;7.86;67.78
38630;BME280;24384;51.988;4.644;2023-03-14T10:35:35;99982.84;;;7.63;68.34
38630;BME280;24384;51.988;4.644;2023-03-14T10:38:01;99994.59;;;7.51;69.31
38630;BME280;24384;51.988;4.644;2023-03-14T10:40:28;100005.13;;;7.77;70.63
38630;BME280;24384;51.988;4.644;2023-03-14T10:42:55;100012.13;;;8.01;70.14
38630;BME280;24384;51.988;4.644;2023-03-14T10:45:40;100017.53;;;7.97;66.98
38630;BME280;24384;51.988;4.644;2023-03-14T10:53:19;100036.84;;;7.96;66.45
38630;BME280;24384;51.988;4.644;2023-03-14T10:55:45;100046.59;;;7.92;65.02
38630;BME280;24384;51.988;4.644;2023-03-14T10:58:19;100060.84;;;7.85;64.56
38630;BME280;24384;51.988;4.644;2023-03-14T11:00:47;100077.66;;;8.04;63.86
38630;BME280;24384;51.988;4.644;2023-03-14T11:03:14;100072.03;;;8.15;63.64
38630;BME280;24384;51.988;4.644;2023-03-14T11:05:57;100091.72;;;8.29;63.44
38630;BME280;24384;51.988;4.644;2023-03-14T11:10:51;100106.34;;;8.85;58.77
38630;BME280;24384;51.988;4.644;2023-03-14T11:13:26;100110.47;;;10.02;57.85
38630;BME280;24384;51.988;4.644;2023-03-14T11:16:06;100115.47;;;10.29;54.05
38630;BME280;24384;51.988;4.644;2023-03-14T11:23:55;100154.19;;;10.68;50.98
38630;BME280;24384;51.988;4.644;2023-03-14T11:26:37;100158.97;;;11.93;50.95
38630;BME280;24384;51.988;4.644;2023-03-14T11:31:49;100165.88;;;14.25;42.66
38630;BME280;24384;51.988;4.644;2023-03-14T11:36:53;100169.91;;;15.75;37.59
38630;BME280;24384;51.988;4.644;2023-03-14T11:39:21;100175.50;;;16.25;35.17
38630;BME280;24384;51.988;4.644;2023-03-14T11:41:49;100193.56;;;16.60;33.30
38630;BME280;24384;51.988;4.644;2023-03-14T11:44:19;100200.38;;;17.41;32.21
38630;BME280;24384;51.988;4.644;2023-03-14T11:46:52;100203.63;;;18.30;29.30
38630;BME280;24384;51.988;4.644;2023-03-14T11:51:50;100214.88;;;19.27;27.37
38630;BME280;24384;51.988;4.644;2023-03-14T11:57:16;100242.63;;;18.44;29.04
38630;BME280;24384;51.988;4.644;2023-03-14T12:08:02;100252.66;;;18.05;29.50
38630;BME280;24384;51.988;4.644;2023-03-14T12:10:29;100250.22;;;18.02;29.16
38630;BME280;24384;51.988;4.644;2023-03-14T12:12:54;100260.72;;;16.91;29.54
38630;BME280;24384;51.988;4.644;2023-03-14T12:15:20;100269.34;;;16.14;30.88
38630;BME280;24384;51.988;4.644;2023-03-14T12:17:46;100273.78;;;15.86;32.69
38630;BME280;24384;51.988;4.644;2023-03-14T12:20:18;100273.28;;;15.24;31.91
38630;BME280;24384;51.988;4.644;2023-03-14T12:22:52;100287.75;;;15.75;31.97
38630;BME280;24384;51.988;4.644;2023-03-14T12:25:25;100290.06;;;15.38;32.52
38630;BME280;24384;51.988;4.644;2023-03-14T12:30:38;100297.47;;;15.33;31.11
38630;BME280;24384;51.988;4.644;2023-03-14T12:35:48;100318.84;;;16.44;29.00
38630;BME280;24384;51.988;4.644;2023-03-14T12:43:42;100316.41;;;16.41;30.77
38630;BME280;24384;51.988;4.644;2023-03-14T12:48:43;100316.78;;;20.89;26.60
38630;BME280;24384;51.988;4.644;2023-03-14T12:51:16;100310.56;;;20.24;26.58
38630;BME280;24384;51.988;4.644;2023-03-14T12:53:52;100325.84;;;19.78;26.30
38630;BME280;24384;51.988;4.644;2023-03-14T13:01:45;100357.38;;;19.17;25.35
38630;BME280;24384;51.988;4.644;2023-03-14T13:04:11;100354.88;;;19.26;24.17
38630;BME280;24384;51.988;4.644;2023-03-14T13:06:53;100365.94;;;19.33;23.46
38630;BME280;24384;51.988;4.644;2023-03-14T13:12:16;100384.75;;;19.20;24.25
38630;BME280;24384;51.988;4.644;2023-03-14T13:14:50;100398.81;;;18.25;25.71
38630;BME280;24384;51.988;4.644;2023-03-14T13:17:22;100406.09;;;17.21;28.12
38630;BME280;24384;51.988;4.644;2023-03-14T13:19:53;100419.66;;;17.30;27.39
38630;BME280;24384;51.988;4.644;2023-03-14T13:22:24;100431.09;;;17.05;26.54
38630;BME280;24384;51.988;4.644;2023-03-14T13:24:50;100433.88;;;17.04;29.95
38630;BME280;24384;51.988;4.644;2023-03-14T13:27:22;100447.59;;;16.56;28.19
38630;BME280;24384;51.988;4.644;2023-03-14T13:29:49;100451.31;;;14.60;29.53
38630;BME280;24384;51.988;4.644;2023-03-14T13:32:22;100479.75;;;13.40;32.29
38630;BME280;24384;51.988;4.644;2023-03-14T13:34:50;100480.09;;;13.15;33.31
38630;BME280;24384;51.988;4.644;2023-03-14T13:37:19;100484.06;;;12.50;34.54
38630;BME280;24384;51.988;4.644;2023-03-14T13:39:49;100491.84;;;11.95;37.23
38630;BME280;24384;51.988;4.644;2023-03-14T13:42:14;100500.53;;;11.35;35.80
38630;BME280;24384;51.988;4.644;2023-03-14T13:44:40;100501.78;;;11.04;38.93
38630;BME280;24384;51.988;4.644;2023-03-14T13:47:09;100504.06;;;11.56;41.45
38630;BME280;24384;51.988;4.644;2023-03-14T13:49:36;100508.31;;;11.38;37.68
38630;BME280;24384;51.988;4.644;2023-03-14T13:52:02;100505.47;;;11.43;37.40
38630;BME280;24384;51.988;4.644;2023-03-14T13:54:28;100513.13;;;11.28;35.76
38630;BME280;24384;51.988;4.644;2023-03-14T13:56:59;100524.78;;;11.23;37.72
38630;BME280;24384;51.988;4.644;2023-03-14T13:59:26;100521.81;;;10.64;38.54
38630;BME280;24384;51.988;4.644;2023-03-14T14:01:52;100533.31;;;10.39;39.77
38630;BME280;24384;51.988;4.644;2023-03-14T14:04:19;100538.84;;;10.32;42.46
38630;BME280;24384;51.988;4.644;2023-03-14T14:06:47;100545.09;;;9.79;42.60
38630;BME280;24384;51.988;4.644;2023-03-14T14:09:24;100542.56;;;9.24;43.32
38630;BME280;24384;51.988;4.644;2023-03-14T14:12:06;100556.47;;;9.27;41.94
38630;BME280;24384;51.988;4.644;2023-03-14T14:14:35;100563.66;;;9.22;42.52
38630;BME280;24384;51.988;4.644;2023-03-14T14:17:03;100571.09;;;9.08;44.08
38630;BME280;24384;51.988;4.644;2023-03-14T14:19:30;100578.94;;;9.09;44.53
38630;BME280;24384;51.988;4.644;2023-03-14T14:21:57;100589.09;;;8.93;46.72
38630;BME280;24384;51.988;4.644;2023-03-14T14:24:23;100592.31;;;8.73;46.71
38630;BME280;24384;51.988;4.644;2023-03-14T14:26:53;100596.19;;;8.60;45.42
38630;BME280;24384;51.988;4.644;2023-03-14T14:34:38;100617.22;;;8.60;45.16
38630;BME280;24384;51.988;4.644;2023-03-14T14:37:04;100632.09;;;8.61;44.36
38630;BME280;24384;51.988;4.644;2023-03-14T14:39:29;100631.09;;;8.32;47.20
38630;BME280;24384;51.988;4.644;2023-03-14T14:41:55;100636.28;;;8.68;45.23
38630;BME280;24384;51.988;4.644;2023-03-14T14:44:26;100637.53;;;8.85;45.75
38630;BME280;24384;51.988;4.644;2023-03-14T14:46:54;100644.09;;;9.01;45.33
38630;BME280;24384;51.988;4.644;2023-03-14T14:49:19;100641.41;;;8.73;42.47
38630;BME280;24384;51.988;4.644;2023-03-14T14:51:49;100643.78;;;8.82;40.90
38630;BME280;24384;51.988;4.644;2023-03-14T14:54:16;100648.63;;;8.65;43.00
38630;BME280;24384;51.988;4.644;2023-03-14T14:56:45;100661.09;;;8.89;45.56
38630;BME280;24384;51.988;4.644;2023-03-14T14:59:18;100663.63;;;8.92;44.02
38630;BME280;24384;51.988;4.644;2023-03-14T15:01:45;100671.19;;;9.03;43.76
38630;BME280;24384;51.988;4.644;2023-03-14T15:04:13;100685.69;;;9.18;44.46
38630;BME280;24384;51.988;4.644;2023-03-14T15:06:40;100696.69;;;9.01;43.03
38630;BME280;24384;51.988;4.644;2023-03-14T15:09:08;100703.00;;;8.95;44.09